createdAt,value
2018-10-01T00:03:23.247Z,55.10
2018-10-01T00:07:26.956Z,55.00
2018-10-01T00:11:30.681Z,55.30
2018-10-01T00:15:34.498Z,55.30
2018-10-01T00:19:43.598Z,55.80
2018-10-01T00:23:47.337Z,56.90
2018-10-01T00:27:51.021Z,56.90
2018-10-01T00:31:54.816Z,56.70
2018-10-01T00:35:58.685Z,56.50
2018-10-01T00:40:02.504Z,56.60
2018-10-01T00:44:06.273Z,58.30
2018-10-01T00:48:09.993Z,57.20
2018-10-01T00:52:13.673Z,57.80
2018-10-01T00:56:17.412Z,57.40
2018-10-01T01:00:21.231Z,57.60
2018-10-01T01:04:24.968Z,59.00
2018-10-01T01:08:28.817Z,58.20
2018-10-01T01:12:32.496Z,59.10
2018-10-01T01:16:36.237Z,59.50
2018-10-01T01:20:40.037Z,59.60
2018-10-01T01:24:43.788Z,59.80
2018-10-01T01:28:47.513Z,60.30
2018-10-01T01:32:51.240Z,59.90
2018-10-01T01:36:55.065Z,60.30
2018-10-01T01:40:58.783Z,59.40
2018-10-01T01:45:03.437Z,61.60
2018-10-01T01:49:07.196Z,59.60
2018-10-01T01:53:11.294Z,59.40
2018-10-01T01:57:15.010Z,59.10
2018-10-01T02:01:18.798Z,58.80
2018-10-01T02:05:22.518Z,58.60
2018-10-01T02:09:26.229Z,58.70
2018-10-01T02:13:29.904Z,58.60
2018-10-01T02:17:33.612Z,59.00
2018-10-01T02:21:37.349Z,59.00
2018-10-01T02:25:41.058Z,58.80
2018-10-01T02:29:44.771Z,58.60
2018-10-01T02:33:48.565Z,58.60
2018-10-01T02:37:52.265Z,58.60
2018-10-01T02:41:55.972Z,58.70
2018-10-01T02:45:59.769Z,58.50
2018-10-01T02:50:03.629Z,59.30
2018-10-01T02:54:12.589Z,59.60
2018-10-01T02:58:16.290Z,61.90
2018-10-01T03:02:20.021Z,62.00
2018-10-01T03:06:23.738Z,62.80
2018-10-01T03:10:27.473Z,60.60
2018-10-01T03:14:31.148Z,61.30
2018-10-01T03:18:34.980Z,64.30
2018-10-01T03:22:38.681Z,62.40
2018-10-01T03:26:42.372Z,64.00
2018-10-01T03:30:46.120Z,65.40
2018-10-01T03:34:49.870Z,63.90
2018-10-01T03:38:53.579Z,64.70
2018-10-01T03:42:57.297Z,62.80
2018-10-01T03:47:01.029Z,64.20
2018-10-01T03:51:04.773Z,64.00
2018-10-01T03:55:08.560Z,64.90
2018-10-01T03:59:12.282Z,63.40
2018-10-01T04:03:16.023Z,63.90
2018-10-01T04:07:19.729Z,63.60
2018-10-01T04:11:23.438Z,65.50
2018-10-01T04:15:27.144Z,65.50
2018-10-01T04:19:30.848Z,64.20
2018-10-01T04:23:34.581Z,65.10
2018-10-01T04:27:38.340Z,66.20
2018-10-01T04:31:42.496Z,67.40
2018-10-01T04:35:46.236Z,64.30
2018-10-01T04:39:49.904Z,66.60
2018-10-01T04:43:53.600Z,65.90
2018-10-01T04:47:57.293Z,66.80
2018-10-01T04:52:00.994Z,65.60
2018-10-01T04:56:04.700Z,64.50
2018-10-01T05:00:08.613Z,65.30
2018-10-01T05:04:12.303Z,66.20
2018-10-01T05:08:16.052Z,64.10
2018-10-01T05:12:22.910Z,67.40
2018-10-01T05:16:29.123Z,68.10
2018-10-01T05:20:34.555Z,65.70
2018-10-01T05:24:40.710Z,64.80
2018-10-01T05:28:46.782Z,67.40
2018-10-01T05:32:51.561Z,67.50
2018-10-01T05:36:55.330Z,65.50
2018-10-01T05:40:59.022Z,67.60
2018-10-01T05:45:02.724Z,66.40
2018-10-01T05:49:06.679Z,66.70
2018-10-01T05:53:10.312Z,66.20
2018-10-01T05:57:14.033Z,67.10
2018-10-01T06:01:17.712Z,67.20
2018-10-01T06:05:21.437Z,67.40
2018-10-01T06:09:25.137Z,70.10
2018-10-01T06:13:28.872Z,68.50
2018-10-01T06:17:32.591Z,67.70
2018-10-01T06:21:36.261Z,69.60
2018-10-01T06:25:39.955Z,69.60
2018-10-01T06:29:43.678Z,67.40
2018-10-01T06:33:47.508Z,67.30
2018-10-01T06:37:51.241Z,67.50
2018-10-01T06:41:54.967Z,68.10
2018-10-01T06:45:58.676Z,67.80
2018-10-01T06:50:02.421Z,68.90
2018-10-01T06:54:06.140Z,67.80
2018-10-01T06:58:09.837Z,66.90
2018-10-01T07:02:13.515Z,67.80
2018-10-01T07:06:17.335Z,68.80
2018-10-01T07:10:21.058Z,68.40
2018-10-01T07:14:24.815Z,68.60
2018-10-01T07:18:28.595Z,70.00
2018-10-01T07:22:32.328Z,69.80
2018-10-01T07:26:36.043Z,68.00
2018-10-01T07:30:39.748Z,68.90
2018-10-01T07:34:43.549Z,68.20
2018-10-01T07:38:47.289Z,68.00
2018-10-01T07:42:50.984Z,68.10
2018-10-01T07:46:54.674Z,68.00
2018-10-01T07:50:58.554Z,68.20
2018-10-01T07:55:02.177Z,70.00
2018-10-01T07:59:06.004Z,68.90
2018-10-01T08:03:09.750Z,70.10
2018-10-01T08:07:13.408Z,68.00
2018-10-01T08:11:17.085Z,69.40
2018-10-01T08:15:20.774Z,69.60
2018-10-01T08:19:24.491Z,69.30
2018-10-01T08:23:28.204Z,68.90
2018-10-01T08:27:31.876Z,67.90
2018-10-01T08:31:36.502Z,68.60
2018-10-01T08:35:40.320Z,69.10
2018-10-01T08:39:44.462Z,68.50
2018-10-01T08:43:48.161Z,69.00
2018-10-01T08:47:51.831Z,68.60
2018-10-01T08:54:04.728Z,69.20
2018-10-01T08:58:08.453Z,69.70
2018-10-01T09:02:12.186Z,68.50
2018-10-01T09:06:15.909Z,67.60
2018-10-01T09:10:19.612Z,68.30
2018-10-01T09:14:23.302Z,67.80
2018-10-01T09:18:27.103Z,67.80
2018-10-01T09:22:30.844Z,67.10
2018-10-01T09:26:34.732Z,67.00
2018-10-01T09:30:38.454Z,66.10
2018-10-01T09:34:42.189Z,66.00
2018-10-01T09:38:45.892Z,64.70
2018-10-01T09:42:49.584Z,64.10
2018-10-01T09:46:53.393Z,63.70
2018-10-01T09:50:57.142Z,63.70
2018-10-01T09:55:00.815Z,63.30
2018-10-01T09:59:04.519Z,60.60
2018-10-01T10:03:08.324Z,61.50
2018-10-01T10:07:12.020Z,61.80
2018-10-01T10:11:15.745Z,61.30
2018-10-01T10:15:19.420Z,60.20
2018-10-01T10:19:23.121Z,60.90
2018-10-01T10:23:26.848Z,60.10
2018-10-01T10:27:30.550Z,60.20
2018-10-01T10:31:34.289Z,59.30
2018-10-01T10:35:38.004Z,59.60
2018-10-01T10:39:41.793Z,60.50
2018-10-01T10:43:45.433Z,60.60
2018-10-01T10:47:49.132Z,60.10
2018-10-01T10:51:52.840Z,59.50
2018-10-01T10:55:56.583Z,58.40
2018-10-01T11:00:00.300Z,58.80
2018-10-01T11:04:04.010Z,58.90
2018-10-01T11:08:07.769Z,58.20
2018-10-01T11:12:11.437Z,59.30
2018-10-01T11:16:15.102Z,58.30
2018-10-01T11:20:18.928Z,58.40
2018-10-01T11:24:22.624Z,58.90
2018-10-01T11:28:26.339Z,59.20
2018-10-01T11:32:30.071Z,59.00
2018-10-01T11:36:33.750Z,60.00
2018-10-01T11:40:37.675Z,59.20
2018-10-01T11:44:41.387Z,59.20
2018-10-01T11:48:45.156Z,59.80
2018-10-01T11:52:48.858Z,60.00
2018-10-01T11:56:52.546Z,60.50
2018-10-01T12:00:56.301Z,60.00
2018-10-01T12:05:00.001Z,61.20
2018-10-01T12:09:04.024Z,59.50
2018-10-01T12:13:07.720Z,59.90
2018-10-01T12:17:11.396Z,60.30
2018-10-01T12:21:15.133Z,61.10
2018-10-01T12:25:18.872Z,61.90
2018-10-01T12:29:22.600Z,62.00
2018-10-01T12:33:26.569Z,62.90
2018-10-01T12:37:30.230Z,62.10
2018-10-01T12:41:33.980Z,63.40
2018-10-01T12:45:37.745Z,63.80
2018-10-01T12:49:41.500Z,63.60
2018-10-01T12:53:45.168Z,63.40
2018-10-01T12:57:48.832Z,63.30
2018-10-01T13:01:52.520Z,62.90
2018-10-01T13:05:56.221Z,63.80
2018-10-01T13:09:59.924Z,63.30
2018-10-01T13:14:03.674Z,63.20
2018-10-01T13:18:07.403Z,64.30
2018-10-01T13:22:11.557Z,63.90
2018-10-01T13:26:15.264Z,63.90
2018-10-01T13:30:19.083Z,63.90
2018-10-01T13:34:22.774Z,64.90
2018-10-01T13:38:26.456Z,66.20
2018-10-01T13:42:30.225Z,65.40
2018-10-01T13:46:33.974Z,65.00
2018-10-01T13:50:37.684Z,65.20
2018-10-01T13:54:41.600Z,64.20
2018-10-01T13:58:45.294Z,63.50
2018-10-01T14:02:49.017Z,62.90
2018-10-01T14:06:52.716Z,63.00
2018-10-01T14:10:56.418Z,63.40
2018-10-01T14:15:00.190Z,62.20
2018-10-01T14:19:03.907Z,62.70
2018-10-01T14:23:07.621Z,62.50
2018-10-01T14:27:11.319Z,62.30
2018-10-01T14:31:15.026Z,62.70
2018-10-01T14:35:18.760Z,62.70
2018-10-01T14:39:22.473Z,62.70
2018-10-01T14:43:26.229Z,64.00
2018-10-01T14:47:29.914Z,64.40
2018-10-01T14:51:33.643Z,63.50
2018-10-01T14:55:37.349Z,63.20
2018-10-01T14:59:40.996Z,62.70
2018-10-01T15:03:44.735Z,62.00
2018-10-01T15:07:48.402Z,60.30
2018-10-01T15:11:52.113Z,60.60
2018-10-01T15:15:55.816Z,58.90
2018-10-01T15:19:59.502Z,59.30
2018-10-01T15:24:03.296Z,58.80
2018-10-01T15:28:07.062Z,59.50
2018-10-01T15:32:10.776Z,59.60
2018-10-01T15:36:14.645Z,59.50
2018-10-01T15:40:18.290Z,60.10
2018-10-01T15:44:22.111Z,59.70
2018-10-01T15:48:25.813Z,59.50
2018-10-01T15:52:29.534Z,59.80
2018-10-01T15:56:33.265Z,59.70
2018-10-01T16:00:36.944Z,59.70
2018-10-01T16:04:40.902Z,59.40
2018-10-01T16:08:44.622Z,60.20
2018-10-01T16:12:48.338Z,59.90
2018-10-01T16:16:52.216Z,59.70
2018-10-01T16:29:28.537Z,59.80
2018-10-01T16:33:32.401Z,59.80
2018-10-01T16:37:36.112Z,60.00
2018-10-01T16:41:39.795Z,60.10
2018-10-01T16:45:43.521Z,60.10
2018-10-01T16:49:47.258Z,60.30
2018-10-01T16:53:50.960Z,61.50
2018-10-01T16:57:54.696Z,62.10
2018-10-01T17:01:58.440Z,61.90
2018-10-01T17:06:02.152Z,61.80
2018-10-01T17:10:06.073Z,61.80
2018-10-01T17:14:10.050Z,61.40
2018-10-01T17:18:13.803Z,61.60
2018-10-01T17:22:17.530Z,61.10
2018-10-01T17:26:21.267Z,60.90
2018-10-01T17:30:25.060Z,61.00
2018-10-01T17:34:28.832Z,60.90
2018-10-01T17:38:32.615Z,61.20
2018-10-01T17:42:36.303Z,64.70
2018-10-01T17:46:40.042Z,65.80
2018-10-01T17:50:43.766Z,67.10
2018-10-01T17:54:47.513Z,66.50
2018-10-01T17:58:51.230Z,65.30
2018-10-01T18:02:54.950Z,65.10
2018-10-01T18:06:58.702Z,65.00
2018-10-01T18:11:02.762Z,64.90
2018-10-01T18:15:07.470Z,64.70
2018-10-01T18:19:11.206Z,65.00
2018-10-01T18:23:14.908Z,64.40
2018-10-01T18:27:18.604Z,64.60
2018-10-01T18:31:22.328Z,64.80
2018-10-01T18:35:26.086Z,65.50
2018-10-01T18:39:31.090Z,64.60
2018-10-01T18:43:34.914Z,64.60
2018-10-01T18:47:38.586Z,64.60
2018-10-01T18:51:42.300Z,64.00
2018-10-01T18:55:46.011Z,64.00
2018-10-01T18:59:57.965Z,65.00
2018-10-01T19:04:01.777Z,64.10
2018-10-01T19:08:05.462Z,64.50
2018-10-01T19:12:09.277Z,64.30
2018-10-01T19:16:12.942Z,64.20
2018-10-01T19:20:16.714Z,64.30
2018-10-01T19:24:20.478Z,65.20
2018-10-01T19:28:24.171Z,65.40
2018-10-01T19:32:27.963Z,64.90
2018-10-01T19:36:31.731Z,65.90
2018-10-01T19:40:35.498Z,64.60
2018-10-01T19:44:39.264Z,64.70
2018-10-01T19:48:42.992Z,65.10
2018-10-01T19:52:46.746Z,64.50
2018-10-01T19:56:50.490Z,64.70
2018-10-01T20:00:54.301Z,65.00
2018-10-01T20:04:58.026Z,64.40
2018-10-01T20:09:01.817Z,64.80
2018-10-01T20:13:05.609Z,65.40
2018-10-01T20:17:09.418Z,65.20
2018-10-01T20:21:13.169Z,65.40
2018-10-01T20:25:16.915Z,68.80
2018-10-01T20:29:20.852Z,68.00
2018-10-01T20:33:24.430Z,67.40
2018-10-01T20:37:28.150Z,67.50
2018-10-01T20:41:31.896Z,68.90
2018-10-01T20:45:35.641Z,67.10
2018-10-01T20:49:39.360Z,68.90
2018-10-01T20:53:43.135Z,67.60
2018-10-01T20:57:46.841Z,67.70
2018-10-01T21:01:50.549Z,67.60
2018-10-01T21:05:54.327Z,67.90
2018-10-01T21:09:58.026Z,68.00
2018-10-01T21:14:01.735Z,68.30
2018-10-01T21:18:05.540Z,67.10
2018-10-01T21:22:09.240Z,66.50
2018-10-01T21:26:13.037Z,67.40
2018-10-01T21:30:16.740Z,66.60
2018-10-01T21:34:20.455Z,67.40
2018-10-01T21:38:24.163Z,67.10
2018-10-01T21:42:28.346Z,65.80
2018-10-01T21:46:32.069Z,67.00
2018-10-01T21:50:35.866Z,66.60
2018-10-01T21:54:39.541Z,65.90
2018-10-01T21:58:43.294Z,66.00
2018-10-01T22:02:47.008Z,66.60
2018-10-01T22:06:50.722Z,66.60
2018-10-01T22:10:54.500Z,67.70
2018-10-01T22:14:58.161Z,66.90
2018-10-01T22:19:01.980Z,66.90
2018-10-01T22:23:05.729Z,67.10
2018-10-01T22:27:09.424Z,66.60
2018-10-01T22:31:13.141Z,66.90
2018-10-01T22:35:16.861Z,67.40
2018-10-01T22:39:20.550Z,67.50
2018-10-01T22:43:24.280Z,66.70
2018-10-01T22:47:27.979Z,67.90
2018-10-01T22:51:31.749Z,67.50
2018-10-01T22:55:35.407Z,67.90
2018-10-01T22:59:39.168Z,67.20
2018-10-01T23:03:43.232Z,67.00
2018-10-01T23:07:46.925Z,68.10
2018-10-01T23:11:50.615Z,68.00
2018-10-01T23:15:54.300Z,67.40
2018-10-01T23:19:58.040Z,67.10
2018-10-01T23:24:01.776Z,66.90
2018-10-01T23:28:05.566Z,66.60
2018-10-01T23:32:09.289Z,67.20
2018-10-01T23:36:12.991Z,66.70
2018-10-01T23:40:16.717Z,66.60
2018-10-01T23:44:20.439Z,66.20
2018-10-01T23:48:24.271Z,66.50
2018-10-01T23:52:27.943Z,66.40
2018-10-01T23:56:31.728Z,66.90
